Time;durP1;ratioP1;P1;durP2;ratioP2;P2;SDS_P1;SDS_P2;PMS_P1;PMS_P2;Temp;Humidity;BMP_temperature;BMP_pressure;BME280_temperature;BME280_humidity;BME280_pressure;Samples;Min_cycle;Max_cycle;Signal;HPM_P1;HPM_P2
2022/05/31 00:00:17;;;;;;;6.90;2.70;;;;;;;8.44;91.65;99643.48;104230;1271;1002991;-64
2022/05/31 00:03:06;;;;;;;6.90;3.00;;;;;;;8.40;91.70;99643.81;105216;1271;72036;-62
2022/05/31 00:05:52;;;;;;;7.40;2.70;;;;;;;8.35;92.00;99642.80;104764;1270;59663;-62
2022/05/31 00:08:39;;;;;;;6.70;3.10;;;;;;;8.28;92.05;99643.11;105170;1271;60496;-64
2022/05/31 00:11:25;;;;;;;7.20;3.40;;;;;;;8.22;92.34;99643.59;106826;1271;73921;-63
2022/05/31 00:14:16;;;;;;;7.80;3.00;;;;;;;8.16;92.48;99644.89;107793;1271;66579;-65
2022/05/31 00:17:04;;;;;;;6.80;3.00;;;;;;;8.11;92.46;99647.90;107270;1271;73298;-64
2022/05/31 00:19:52;;;;;;;7.20;3.00;;;;;;;8.06;92.76;99649.17;106397;1273;59735;-66
2022/05/31 00:22:41;;;;;;;6.90;3.00;;;;;;;8.02;93.05;99651.94;105042;1271;61978;-64
2022/05/31 00:25:27;;;;;;;8.10;3.40;;;;;;;7.98;93.20;99654.36;104870;1271;73668;-63
2022/05/31 00:28:14;;;;;;;7.40;3.00;;;;;;;7.95;93.66;99656.15;105046;1271;67304;-64
2022/05/31 00:31:03;;;;;;;7.20;3.10;;;;;;;7.93;93.97;99657.00;105142;1271;72524;-65
2022/05/31 00:33:50;;;;;;;7.20;3.20;;;;;;;7.91;94.15;99654.34;105023;1271;59640;-63
2022/05/31 00:36:39;;;;;;;7.60;3.40;;;;;;;7.89;94.44;99658.70;104903;1271;60437;-63
2022/05/31 00:39:42;;;;;;;7.50;3.60;;;;;;;7.87;94.47;99656.77;105075;1271;73764;-63
2022/05/31 00:42:45;;;;;;;8.20;3.80;;;;;;;7.84;94.57;99656.95;105046;1271;69461;-64
2022/05/31 00:45:39;;;;;;;7.40;3.60;;;;;;;7.79;94.61;99657.12;104864;1271;74318;-60
2022/05/31 00:48:35;;;;;;;7.70;3.50;;;;;;;7.76;94.85;99660.52;105069;1271;60528;-64
2022/05/31 00:51:23;;;;;;;8.00;3.90;;;;;;;7.75;95.18;99663.06;104873;1271;59634;-67
2022/05/31 00:54:16;;;;;;;8.50;3.40;;;;;;;7.75;95.35;99663.94;104843;1271;72554;-63
2022/05/31 00:57:03;;;;;;;7.70;3.40;;;;;;;7.74;95.84;99664.17;104859;1271;66594;-66
2022/05/31 00:59:56;;;;;;;7.90;3.40;;;;;;;7.76;96.04;99666.03;105039;1270;74944;-62
2022/05/31 01:02:45;;;;;;;7.60;3.50;;;;;;;7.78;96.31;99669.16;104819;1271;59710;-63
2022/05/31 01:05:32;;;;;;;7.90;3.50;;;;;;;7.79;96.27;99664.70;104791;1274;62257;-66
2022/05/31 01:08:19;;;;;;;6.70;3.00;;;;;;;7.88;96.77;99670.61;104912;1273;73711;-64
2022/05/31 01:11:30;;;;;;;7.60;3.60;;;;;;;7.95;96.94;99676.33;104905;1271;68658;-62
2022/05/31 01:14:37;;;;;;;8.20;4.10;;;;;;;8.02;96.88;99678.43;105305;1271;74292;-63
2022/05/31 01:17:42;;;;;;;8.00;4.00;;;;;;;8.07;96.79;99680.23;105209;1271;59874;-62
2022/05/31 01:20:51;;;;;;;8.70;3.80;;;;;;;8.11;96.93;99679.89;104911;1273;60467;-61
2022/05/31 01:24:12;;;;;;;9.20;3.90;;;;;;;8.14;97.09;99675.73;104821;1274;73849;-63
2022/05/31 01:27:16;;;;;;;6.70;2.80;;;;;;;8.19;97.16;99680.88;105118;1271;70012;-62
2022/05/31 01:30:07;;;;;;;7.20;3.30;;;;;;;8.21;96.57;99677.94;104903;1271;73320;-59
2022/05/31 01:33:24;;;;;;;8.60;3.00;;;;;;;8.20;96.16;99685.42;104894;1271;60310;-63
2022/05/31 01:36:24;;;;;;;6.50;2.70;;;;;;;8.15;95.78;99685.38;104675;1274;61784;-62
2022/05/31 01:39:20;;;;;;;6.60;2.90;;;;;;;8.11;96.01;99685.02;104918;1271;73471;-63
2022/05/31 01:42:36;;;;;;;6.90;3.00;;;;;;;8.07;95.89;99682.12;104977;1273;69781;-64
2022/05/31 01:45:31;;;;;;;6.80;2.80;;;;;;;8.02;95.79;99684.80;104795;1271;74426;-65
2022/05/31 01:48:18;;;;;;;6.90;2.70;;;;;;;7.96;95.67;99686.44;105065;1271;59777;-63
2022/05/31 01:51:05;;;;;;;6.10;2.50;;;;;;;7.92;95.62;99689.25;104936;1271;60511;-67
2022/05/31 01:53:53;;;;;;;7.80;3.00;;;;;;;7.87;95.59;99687.52;104888;1271;73300;-62
2022/05/31 01:56:42;;;;;;;7.10;2.70;;;;;;;7.80;95.92;99695.18;104826;1271;68459;-65
2022/05/31 01:59:37;;;;;;;6.50;2.60;;;;;;;7.76;96.11;99693.20;104701;1274;74595;-64
2022/05/31 02:02:25;;;;;;;6.60;2.50;;;;;;;7.72;95.94;99704.25;104812;1274;59784;-65
2022/05/31 02:05:15;;;;;;;6.10;2.50;;;;;;;7.67;96.10;99707.23;104811;1274;60806;-65
2022/05/31 02:08:04;;;;;;;6.80;3.00;;;;;;;7.62;96.22;99709.16;104744;1274;73610;-63
2022/05/31 02:10:51;;;;;;;6.50;2.70;;;;;;;7.61;96.61;99712.28;104806;1273;68271;-63
2022/05/31 02:13:38;;;;;;;7.40;3.30;;;;;;;7.61;96.43;99713.84;104926;1274;74427;-63
2022/05/31 02:16:30;;;;;;;6.60;3.10;;;;;;;7.63;96.96;99713.38;104916;1274;60550;-62
2022/05/31 02:19:38;;;;;;;7.30;3.30;;;;;;;7.68;96.99;99719.02;105161;1274;60477;-63
2022/05/31 02:22:46;;;;;;;6.70;3.10;;;;;;;7.75;97.64;99722.05;104813;1274;74668;-61
2022/05/31 02:25:32;;;;;;;7.60;3.80;;;;;;;7.79;97.76;99723.17;104711;1274;69433;-62
2022/05/31 02:28:19;;;;;;;9.20;3.10;;;;;;;7.82;97.66;99726.29;104792;1274;74753;-65
2022/05/31 02:31:08;;;;;;;8.70;3.60;;;;;;;7.83;97.83;99724.10;104775;1274;59963;-62
2022/05/31 02:33:56;;;;;;;7.30;3.20;;;;;;;7.84;97.61;99727.23;104801;1274;60894;-62
2022/05/31 02:36:43;;;;;;;7.40;3.00;;;;;;;7.85;97.65;99728.77;104860;1271;74738;-63
2022/05/31 02:39:31;;;;;;;7.70;3.50;;;;;;;7.86;97.45;99720.05;104878;1272;68492;-62
2022/05/31 02:42:17;;;;;;;7.10;3.50;;;;;;;7.87;97.22;99722.10;104745;1271;73531;-64
2022/05/31 02:45:07;;;;;;;7.50;3.70;;;;;;;7.87;96.98;99722.09;104892;1271;60068;-65
2022/05/31 02:47:53;;;;;;;7.50;3.10;;;;;;;7.86;97.02;99725.17;104832;1271;62059;-63
2022/05/31 02:50:40;;;;;;;7.10;2.70;;;;;;;7.86;96.60;99724.63;105042;1271;73647;-63
2022/05/31 02:53:29;;;;;;;6.50;2.50;;;;;;;7.86;96.30;99723.58;104932;1271;67603;-62
2022/05/31 02:56:15;;;;;;;6.60;3.10;;;;;;;7.89;96.02;99726.04;104949;1271;74727;-66
2022/05/31 02:59:21;;;;;;;6.60;2.40;;;;;;;7.91;95.73;99727.29;105056;1271;59793;-67
2022/05/31 03:02:38;;;;;;;6.20;2.70;;;;;;;7.93;95.33;99729.10;104975;1271;59663;-64
2022/05/31 03:05:51;;;;;;;7.60;2.70;;;;;;;7.95;95.33;99732.49;105104;1271;73718;-61
2022/05/31 03:09:00;;;;;;;6.20;2.70;;;;;;;7.99;95.15;99735.00;104950;1271;69610;-62
2022/05/31 03:12:08;;;;;;;6.30;2.60;;;;;;;8.08;95.05;99733.51;104874;1271;74433;-63
2022/05/31 03:15:18;;;;;;;7.00;2.80;;;;;;;8.15;94.44;99735.94;104726;1274;59954;-62
2022/05/31 03:18:17;;;;;;;7.20;2.70;;;;;;;8.25;94.41;99735.77;104857;1272;61986;-62
2022/05/31 03:21:13;;;;;;;6.00;2.40;;;;;;;8.31;93.69;99737.45;104880;1274;74937;-63
2022/05/31 03:24:09;;;;;;;6.20;2.60;;;;;;;8.33;92.99;99736.76;104966;1274;69452;-63
2022/05/31 03:27:00;;;;;;;6.60;2.70;;;;;;;8.38;92.80;99740.51;105012;1273;74383;-63
2022/05/31 03:29:50;;;;;;;6.30;2.60;;;;;;;8.41;92.54;99743.45;104906;1272;61351;-63
2022/05/31 03:32:37;;;;;;;6.00;2.80;;;;;;;8.47;92.38;99738.45;105031;1274;61919;-64
2022/05/31 03:35:23;;;;;;;7.90;2.90;;;;;;;8.52;91.72;99743.87;104950;1271;74522;-63
2022/05/31 03:38:10;;;;;;;8.00;2.50;;;;;;;8.57;91.39;99737.05;105101;1271;65508;-62
2022/05/31 03:41:00;;;;;;;7.20;2.80;;;;;;;8.64;91.22;99739.83;104957;1271;74467;-62
2022/05/31 03:44:13;;;;;;;6.40;2.50;;;;;;;8.78;91.08;99734.02;104806;1271;59683;-65
2022/05/31 03:47:08;;;;;;;6.10;2.40;;;;;;;8.85;89.85;99725.51;105178;1271;59654;-64
2022/05/31 03:50:14;;;;;;;5.90;2.60;;;;;;;8.91;89.70;99728.13;105009;1271;73830;-65
2022/05/31 03:53:01;;;;;;;6.30;2.70;;;;;;;8.94;89.41;99726.83;104898;1274;68548;-68
2022/05/31 03:55:48;;;;;;;6.70;2.90;;;;;;;9.00;89.52;99729.13;104812;1271;72095;-64
2022/05/31 03:58:36;;;;;;;6.10;2.50;;;;;;;9.10;89.15;99730.05;104854;1271;61202;-65
2022/05/31 04:01:36;;;;;;;6.00;2.60;;;;;;;9.14;88.30;99731.48;104973;1271;59572;-65
2022/05/31 04:04:23;;;;;;;6.60;2.70;;;;;;;9.11;87.83;99728.34;104886;1271;73822;-63
2022/05/31 04:07:10;;;;;;;6.00;2.50;;;;;;;9.07;87.64;99728.66;105003;1271;69515;-62
2022/05/31 04:09:57;;;;;;;6.50;2.50;;;;;;;9.01;87.72;99733.36;104894;1271;74454;-61
2022/05/31 04:12:44;;;;;;;6.70;2.90;;;;;;;8.94;87.99;99734.41;104878;1271;59811;-61
2022/05/31 04:15:33;;;;;;;6.50;2.70;;;;;;;8.92;88.13;99738.66;104937;1271;61094;-65
2022/05/31 04:18:20;;;;;;;6.00;2.50;;;;;;;8.92;88.33;99742.55;104559;1274;72702;-62
2022/05/31 04:21:12;;;;;;;7.20;3.10;;;;;;;8.99;88.45;99751.73;104667;1274;69524;-63
2022/05/31 04:23:59;;;;;;;6.70;3.00;;;;;;;9.11;88.26;99756.14;104897;1274;73347;-63
2022/05/31 04:27:01;;;;;;;6.10;2.70;;;;;;;9.12;87.63;99764.39;104847;1271;60181;-65
2022/05/31 04:29:50;;;;;;;7.00;3.00;;;;;;;9.16;87.13;99766.49;104943;1272;59692;-64
2022/05/31 04:32:59;;;;;;;7.80;2.70;;;;;;;9.37;86.40;99765.61;105016;1271;71286;-64
2022/05/31 04:36:15;;;;;;;6.10;2.80;;;;;;;9.41;86.22;99765.70;104915;1271;68862;-67
2022/05/31 04:39:06;;;;;;;6.40;2.80;;;;;;;9.67;84.78;99765.47;104735;1271;73397;-64
2022/05/31 04:41:55;;;;;;;6.30;2.60;;;;;;;10.11;82.83;99767.14;104967;1274;61347;-65
2022/05/31 04:44:43;;;;;;;6.70;3.00;;;;;;;10.52;81.32;99765.40;104846;1271;59705;-65
2022/05/31 04:47:30;;;;;;;8.40;2.90;;;;;;;11.18;79.03;99766.66;104976;1274;74317;-65
2022/05/31 04:50:17;;;;;;;6.80;2.70;;;;;;;11.79;75.17;99765.40;104869;1271;67313;-62
2022/05/31 04:53:04;;;;;;;6.20;2.80;;;;;;;12.41;72.80;99761.87;104885;1271;74585;-65
2022/05/31 04:56:00;;;;;;;7.00;2.50;;;;;;;12.81;70.81;99765.32;104796;1271;59662;-64
2022/05/31 04:58:50;;;;;;;5.60;2.30;;;;;;;13.44;69.35;99758.29;104992;1271;60439;-67
2022/05/31 05:01:38;;;;;;;6.30;2.40;;;;;;;13.72;66.77;99754.61;104772;1271;73809;-65
2022/05/31 05:04:30;;;;;;;5.50;2.40;;;;;;;13.72;66.02;99752.86;104775;1271;68735;-63
2022/05/31 05:07:17;;;;;;;5.90;2.30;;;;;;;14.16;64.15;99757.48;104762;1274;72324;-64
2022/05/31 05:10:09;;;;;;;7.20;2.10;;;;;;;14.66;62.56;99754.92;104859;1271;59840;-63
2022/05/31 05:12:59;;;;;;;6.30;2.10;;;;;;;15.25;61.07;99755.48;104667;1274;61045;-65
2022/05/31 05:16:09;;;;;;;5.80;2.40;;;;;;;15.15;60.17;99756.85;104974;1271;338353;-63
2022/05/31 05:18:56;;;;;;;6.40;2.30;;;;;;;15.04;60.30;99759.35;104937;1271;68622;-62
2022/05/31 05:21:43;;;;;;;6.80;2.70;;;;;;;15.18;60.46;99762.66;104730;1271;74476;-66
2022/05/31 05:24:29;;;;;;;5.60;2.20;;;;;;;14.96;60.64;99758.20;104792;1271;59642;-65
2022/05/31 05:27:35;;;;;;;6.50;2.80;;;;;;;14.80;60.52;99762.35;104738;1271;60526;-67
2022/05/31 05:30:44;;;;;;;6.50;2.70;;;;;;;16.07;58.19;99752.56;104929;1271;73620;-64
2022/05/31 05:33:36;;;;;;;6.20;2.30;;;;;;;17.40;54.37;99748.08;104880;1271;68551;-65
2022/05/31 05:36:31;;;;;;;10.30;6.50;;;;;;;18.57;51.90;99740.16;104805;1271;72930;-66
2022/05/31 05:39:17;;;;;;;7.10;3.30;;;;;;;19.76;48.49;99732.48;104760;1271;59660;-64
2022/05/31 05:42:23;;;;;;;6.70;2.80;;;;;;;20.61;45.07;99731.33;105098;1274;62390;-65
2022/05/31 05:45:31;;;;;;;12.90;9.30;;;;;;;21.36;43.26;99733.62;104988;1271;74710;-67
2022/05/31 05:48:17;;;;;;;7.40;3.10;;;;;;;22.04;41.46;99726.89;104745;1271;68808;-65
2022/05/31 05:51:31;;;;;;;10.70;7.00;;;;;;;21.88;39.85;99728.41;104768;1272;73351;-63
2022/05/31 05:54:36;;;;;;;6.40;2.50;;;;;;;22.32;39.02;99726.40;104960;1271;59685;-67
2022/05/31 05:57:42;;;;;;;6.60;2.50;;;;;;;22.76;38.62;99725.38;104993;1274;60370;-64
2022/05/31 06:00:52;;;;;;;5.60;1.90;;;;;;;23.02;38.13;99723.09;104793;1271;74517;-67
2022/05/31 06:03:50;;;;;;;8.50;4.60;;;;;;;23.77;36.97;99722.31;104701;1271;68387;-67
2022/05/31 06:06:40;;;;;;;5.50;1.60;;;;;;;24.18;34.80;99720.32;104959;1272;73399;-68
2022/05/31 06:09:31;;;;;;;7.20;1.90;;;;;;;24.14;34.91;99719.30;104690;1271;59631;-68
2022/05/31 06:12:25;;;;;;;7.10;2.90;;;;;;;24.73;34.41;99721.75;104683;1271;61314;-66
2022/05/31 06:15:21;;;;;;;5.80;2.10;;;;;;;25.36;33.50;99722.16;104866;1271;74831;-68
2022/05/31 06:18:15;;;;;;;6.10;2.20;;;;;;;25.79;32.67;99714.13;104854;1271;68961;-67
2022/05/31 06:21:06;;;;;;;6.80;2.00;;;;;;;26.18;32.30;99714.69;104737;1271;74310;-67
2022/05/31 06:23:55;;;;;;;6.50;1.90;;;;;;;26.68;31.56;99719.08;104831;1271;59748;-66
2022/05/31 06:26:43;;;;;;;6.00;1.90;;;;;;;27.23;31.23;99717.96;105193;1271;60492;-67
2022/05/31 06:29:30;;;;;;;5.90;2.10;;;;;;;27.74;30.40;99722.02;105175;1271;74621;-65
2022/05/31 06:32:17;;;;;;;5.90;2.40;;;;;;;27.93;28.88;99722.86;104763;1271;68433;-67
2022/05/31 06:35:05;;;;;;;6.80;2.00;;;;;;;27.66;29.29;99721.68;105150;1271;74486;-68
2022/05/31 06:38:08;;;;;;;7.30;2.00;;;;;;;27.54;30.07;99730.77;104915;1271;59768;-69
2022/05/31 06:40:56;;;;;;;7.80;1.80;;;;;;;26.94;29.46;99738.41;104717;1271;61355;-67
2022/05/31 06:43:49;;;;;;;6.60;1.90;;;;;;;27.00;29.84;99739.54;105269;1271;73149;-67
2022/05/31 06:47:10;;;;;;;5.50;1.50;;;;;;;27.16;29.45;99742.11;105683;1271;66703;-64
2022/05/31 06:50:16;;;;;;;6.20;1.80;;;;;;;26.22;30.80;99741.49;104867;1271;72106;-66
2022/05/31 06:57:01;;;;;;;5.40;1.80;;;;;;;24.69;33.10;99754.10;104857;1271;60319;-66
2022/05/31 07:00:14;;;;;;;6.70;1.90;;;;;;;23.89;34.61;99760.27;104735;1274;73351;-66
2022/05/31 07:03:00;;;;;;;7.50;3.00;;;;;;;22.94;36.07;99769.17;104819;1274;68533;-67
2022/05/31 07:05:58;;;;;;;12.10;7.40;;;;;;;22.07;37.54;99768.23;104993;1273;74484;-65
2022/05/31 07:08:45;;;;;;;6.90;2.50;;;;;;;21.85;38.38;99768.38;104704;1274;59775;-71
2022/05/31 07:11:47;;;;;;;7.80;2.50;;;;;;;23.52;35.80;99762.01;104978;1271;61712;-66
2022/05/31 07:14:52;;;;;;;8.10;4.10;;;;;;;24.70;34.00;99758.40;104977;1271;75036;-65
2022/05/31 07:18:11;;;;;;;7.80;3.70;;;;;;;25.03;33.33;99757.58;104739;1274;68381;-65
2022/05/31 07:20:58;;;;;;;8.10;3.60;;;;;;;25.50;31.87;99757.94;104964;1271;74462;-65
2022/05/31 07:23:45;;;;;;;6.10;2.30;;;;;;;25.93;31.38;99754.54;104726;1274;59598;-65
2022/05/31 07:26:33;;;;;;;6.30;3.00;;;;;;;26.37;29.92;99750.83;104759;1271;62155;-64
2022/05/31 07:29:23;;;;;;;7.40;3.10;;;;;;;26.80;29.90;99754.92;104659;1274;73628;-67
2022/05/31 07:32:10;;;;;;;7.20;2.80;;;;;;;27.18;29.40;99755.48;104837;1271;69511;-68
2022/05/31 07:35:17;;;;;;;6.20;2.20;;;;;;;27.91;28.05;99758.59;104852;1271;72145;-65
2022/05/31 07:38:03;;;;;;;6.40;1.90;;;;;;;27.81;28.07;99758.91;104773;1272;59729;-66
2022/05/31 07:40:50;;;;;;;5.80;1.90;;;;;;;27.63;28.23;99767.55;104762;1271;59720;-68
2022/05/31 07:43:37;;;;;;;6.60;2.70;;;;;;;26.78;29.16;99770.11;104839;1272;72720;-66
2022/05/31 07:46:23;;;;;;;5.30;1.70;;;;;;;27.07;28.46;99772.68;104911;1271;68870;-66
2022/05/31 07:49:10;;;;;;;7.20;1.90;;;;;;;27.63;28.36;99771.90;104817;1274;74556;-65
2022/05/31 07:52:18;;;;;;;6.10;1.70;;;;;;;27.38;28.51;99771.38;105152;1271;59701;-66
2022/05/31 07:55:15;;;;;;;5.30;1.70;;;;;;;27.38;27.81;99776.10;104977;1271;60528;-69
2022/05/31 07:58:31;;;;;;;6.50;1.60;;;;;;;26.71;29.23;99774.73;104812;1271;73784;-64
2022/05/31 08:01:56;;;;;;;6.40;1.90;;;;;;;24.41;32.36;99785.77;104792;1271;66836;-67
2022/05/31 08:05:07;;;;;;;7.90;2.60;;;;;;;22.48;35.80;99794.05;105072;1271;73419;-68
2022/05/31 08:07:53;;;;;;;7.90;2.40;;;;;;;21.92;37.73;99794.18;104761;1272;59630;-68
2022/05/31 08:11:17;;;;;;;6.30;2.00;;;;;;;21.32;38.53;99795.30;104933;1271;60299;-66
2022/05/31 08:14:03;;;;;;;6.80;2.10;;;;;;;20.22;40.80;99796.17;104931;1271;74126;-63
2022/05/31 08:16:52;;;;;;;7.10;2.10;;;;;;;18.90;43.92;99802.00;104845;1274;69551;-66
2022/05/31 08:19:39;;;;;;;6.20;2.50;;;;;;;18.12;45.89;99808.38;104670;1274;73427;-66
2022/05/31 08:22:25;;;;;;;5.40;1.80;;;;;;;17.97;46.26;99806.68;104825;1271;59772;-65
2022/05/31 08:25:13;;;;;;;6.90;2.00;;;;;;;17.60;47.09;99804.69;104957;1271;61851;-64
2022/05/31 08:28:01;;;;;;;5.70;1.90;;;;;;;17.26;48.13;99810.87;104773;1274;73671;-64
2022/05/31 08:30:52;;;;;;;6.20;1.90;;;;;;;17.07;48.23;99806.93;104726;1271;69600;-64
2022/05/31 08:33:40;;;;;;;7.10;3.00;;;;;;;16.75;48.73;99807.98;104746;1274;74470;-65
2022/05/31 08:36:26;;;;;;;6.40;1.90;;;;;;;16.58;49.69;99806.77;104769;1271;59752;-62
2022/05/31 08:39:13;;;;;;;13.60;7.90;;;;;;;16.40;50.68;99807.07;104930;1271;60888;-64
2022/05/31 08:42:14;;;;;;;5.90;2.20;;;;;;;16.23;51.20;99808.89;104917;1271;72342;-65
2022/05/31 08:45:12;;;;;;;6.10;2.00;;;;;;;16.04;51.57;99809.61;104810;1272;67476;-69
2022/05/31 08:48:36;;;;;;;6.90;2.10;;;;;;;15.84;52.02;99811.70;105017;1272;72382;-65
2022/05/31 08:52:04;;;;;;;5.60;1.70;;;;;;;15.61;52.83;99809.37;104530;1278;59841;-64
2022/05/31 08:58:08;;;;;;;5.70;1.80;;;;;;;15.36;54.33;99821.90;104222;1280;73537;-65
2022/05/31 09:00:57;;;;;;;6.70;1.70;;;;;;;15.33;54.76;99823.95;104360;1278;69712;-64
2022/05/31 09:04:00;;;;;;;5.60;1.70;;;;;;;15.44;54.57;99828.42;104321;1277;73445;-64
2022/05/31 09:06:55;;;;;;;7.40;2.90;;;;;;;15.90;54.44;99823.02;104286;1278;59649;-69
2022/05/31 09:10:23;;;;;;;5.70;1.50;;;;;;;17.73;50.30;99819.73;104220;1277;59979;-65
2022/05/31 09:13:25;;;;;;;6.10;1.80;;;;;;;19.17;46.24;99815.43;104364;1278;74906;-64
2022/05/31 09:16:41;;;;;;;5.40;1.40;;;;;;;19.31;45.46;99817.80;104734;1277;68619;-65
2022/05/31 09:20:28;;;;;;;5.30;1.30;;;;;;;19.07;44.67;99813.61;104367;1277;74279;-66
2022/05/31 09:23:25;;;;;;;4.50;1.20;;;;;;;18.89;44.88;99816.33;103820;1284;59870;-65
2022/05/31 09:26:42;;;;;;;5.40;1.60;;;;;;;19.54;44.12;99818.56;103925;1283;60794;-63
2022/05/31 09:30:01;;;;;;;5.80;2.00;;;;;;;20.56;41.29;99810.56;104122;1280;72706;-62
2022/05/31 09:33:07;;;;;;;6.60;1.80;;;;;;;20.77;40.58;99810.66;104164;1281;68563;-65
2022/05/31 09:36:17;;;;;;;5.00;1.10;;;;;;;21.58;38.32;99806.80;104211;1280;73374;-65
2022/05/31 09:39:21;;;;;;;7.10;1.70;;;;;;;21.68;37.66;99803.39;104324;1280;59994;-64
2022/05/31 09:42:20;;;;;;;7.00;1.40;;;;;;;21.17;37.57;99804.05;104526;1278;60919;-64
2022/05/31 09:45:16;;;;;;;4.50;1.20;;;;;;;20.63;38.23;99804.67;104180;1278;74783;-65
2022/05/31 09:48:07;;;;;;;5.00;1.10;;;;;;;19.97;39.65;99808.39;104378;1278;68490;-64
2022/05/31 09:51:20;;;;;;;5.50;1.10;;;;;;;19.53;40.97;99812.25;104167;1281;73233;-68
2022/05/31 09:57:30;;;;;;;5.10;1.30;;;;;;;18.84;42.70;99809.80;104803;1271;59646;-65
2022/05/31 10:00:20;;;;;;;5.80;1.30;;;;;;;18.68;42.41;99808.09;104822;1271;73733;-63
2022/05/31 10:03:13;;;;;;;9.70;4.70;;;;;;;18.53;43.14;99812.31;104712;1271;69655;-64
2022/05/31 10:06:21;;;;;;;4.60;1.30;;;;;;;18.27;43.29;99808.69;105030;1271;73308;-64
2022/05/31 10:09:17;;;;;;;5.20;1.40;;;;;;;17.87;44.60;99817.96;105017;1271;59780;-63
2022/05/31 10:12:10;;;;;;;5.20;1.90;;;;;;;17.82;45.03;99814.98;105234;1271;60058;-65
2022/05/31 10:14:58;;;;;;;4.40;1.10;;;;;;;17.95;45.09;99814.93;104966;1271;73455;-64
2022/05/31 10:17:44;;;;;;;5.00;1.10;;;;;;;18.27;44.20;99814.56;104844;1271;69463;-64
2022/05/31 10:20:36;;;;;;;5.10;0.90;;;;;;;18.53;43.20;99816.08;104666;1272;74349;-66
2022/05/31 10:23:31;;;;;;;4.60;0.90;;;;;;;18.52;42.88;99820.94;104863;1274;59704;-65
2022/05/31 10:26:38;;;;;;;5.80;1.10;;;;;;;18.97;41.82;99821.45;105133;1274;61295;-66
2022/05/31 10:29:52;;;;;;;4.50;1.10;;;;;;;20.56;39.19;99812.84;104895;1271;73692;-64
2022/05/31 10:33:19;;;;;;;4.80;1.10;;;;;;;22.19;35.41;99812.36;105126;1271;68662;-66
2022/05/31 10:36:20;;;;;;;5.20;1.10;;;;;;;22.93;33.43;99801.85;104934;1271;73576;-64
2022/05/31 10:39:11;;;;;;;6.40;1.20;;;;;;;23.13;33.18;99800.80;105058;1271;59878;-67
2022/05/31 10:42:01;;;;;;;4.30;0.90;;;;;;;22.44;33.12;99805.85;104703;1271;61018;-66
2022/05/31 10:45:02;;;;;;;4.20;0.80;;;;;;;21.99;33.37;99808.73;104744;1271;72982;-64
2022/05/31 10:47:48;;;;;;;4.10;0.80;;;;;;;21.86;33.71;99806.35;104828;1271;66777;-64
2022/05/31 10:51:07;;;;;;;6.30;0.90;;;;;;;21.97;34.27;99808.66;104897;1271;73844;-67
2022/05/31 10:54:21;;;;;;;4.20;1.00;;;;;;;21.75;34.94;99805.05;104812;1271;59611;-68
2022/05/31 10:57:27;;;;;;;5.50;1.20;;;;;;;21.34;35.87;99813.27;104850;1271;59539;-64
2022/05/31 11:00:59;;;;;;;4.70;1.10;;;;;;;20.66;36.97;99813.52;105183;1271;75291;-65
2022/05/31 11:04:00;;;;;;;5.30;1.10;;;;;;;20.81;36.19;99816.08;104500;1278;68579;-64
2022/05/31 11:07:28;;;;;;;4.50;0.90;;;;;;;22.67;33.15;99810.50;104273;1277;73306;-65
2022/05/31 11:14:36;;;;;;;6.00;1.10;;;;;;;21.82;34.42;99811.71;104321;1278;60515;-65
2022/05/31 11:18:40;;;;;;;6.10;1.40;;;;;;;21.11;36.30;99815.39;104301;1278;74837;-65
2022/05/31 11:21:50;;;;;;;5.20;1.40;;;;;;;20.19;37.88;99817.23;103092;1294;68487;-65
2022/05/31 11:25:00;;;;;;;6.40;1.80;;;;;;;19.76;38.76;99821.56;103155;1293;74556;-66
2022/05/31 11:28:24;;;;;;;5.60;1.60;;;;;;;19.30;40.00;99824.98;103223;1293;59697;-67
2022/05/31 11:31:39;;;;;;;6.20;1.30;;;;;;;18.82;41.07;99828.05;102996;1293;60456;-64
2022/05/31 11:35:09;;;;;;;4.70;1.10;;;;;;;18.56;40.75;99820.61;103330;1291;72848;-64
2022/05/31 11:38:15;;;;;;;4.80;1.00;;;;;;;18.31;40.96;99821.86;103567;1287;68757;-63
2022/05/31 11:41:18;;;;;;;4.90;1.00;;;;;;;18.32;41.50;99822.62;103415;1287;73518;-63
2022/05/31 11:44:37;;;;;;;4.50;1.10;;;;;;;18.53;40.92;99826.53;103564;1288;59995;-66
2022/05/31 11:47:52;;;;;;;6.10;1.30;;;;;;;18.85;41.22;99826.77;103465;1287;62097;-63
2022/05/31 11:51:15;;;;;;;4.50;1.10;;;;;;;19.03;40.35;99824.62;103367;1288;74603;-61
2022/05/31 11:54:22;;;;;;;4.90;1.00;;;;;;;19.16;39.96;99825.41;104183;1280;68983;-67
2022/05/31 11:57:38;;;;;;;4.30;1.00;;;;;;;19.28;40.30;99826.33;104615;1271;73755;-62
2022/05/31 12:00:36;;;;;;;3.80;0.90;;;;;;;19.37;37.65;99830.48;105147;1274;59669;-62
2022/05/31 12:03:40;;;;;;;4.80;1.00;;;;;;;19.61;37.79;99831.27;104796;1271;60632;-64
2022/05/31 12:06:43;;;;;;;4.20;0.90;;;;;;;19.67;37.39;99827.09;105125;1271;73621;-63
2022/05/31 12:09:56;;;;;;;3.90;0.90;;;;;;;19.55;37.89;99831.59;104799;1274;68489;-63
2022/05/31 12:12:44;;;;;;;4.50;1.00;;;;;;;19.12;40.06;99852.29;104816;1274;74073;-63
2022/05/31 12:15:35;;;;;;;5.10;1.50;;;;;;;18.51;45.10;99854.42;104710;1273;59669;-64
2022/05/31 12:18:37;;;;;;;7.40;2.00;;;;;;;17.85;49.79;99858.54;104748;1274;60969;-63
2022/05/31 12:21:57;;;;;;;7.00;1.70;;;;;;;17.27;53.82;99852.75;105046;1274;73764;-64
2022/05/31 12:24:56;;;;;;;8.30;2.40;;;;;;;16.78;57.69;99852.50;105146;1271;66617;-62
2022/05/31 12:28:08;;;;;;;7.40;3.40;;;;;;;16.36;60.00;99853.36;105144;1271;73391;-64
2022/05/31 12:31:09;;;;;;;8.20;3.20;;;;;;;16.07;62.79;99856.55;104974;1271;59780;-63
2022/05/31 12:34:20;;;;;;;8.60;3.70;;;;;;;15.89;63.88;99867.31;104840;1271;60438;-62
2022/05/31 12:37:14;;;;;;;7.10;3.50;;;;;;;15.86;65.25;99879.27;104874;1271;74736;-61
2022/05/31 12:40:41;;;;;;;9.00;3.70;;;;;;;15.93;65.41;99878.38;104829;1271;69501;-64
2022/05/31 12:43:42;;;;;;;10.20;3.80;;;;;;;16.04;65.53;99879.77;104971;1271;72569;-62
2022/05/31 12:46:36;;;;;;;8.30;3.50;;;;;;;16.09;64.62;99885.45;104892;1271;59701;-67
2022/05/31 12:49:28;;;;;;;9.30;3.90;;;;;;;16.21;65.33;99890.90;104743;1271;62059;-68
2022/05/31 12:55:26;;;;;;;7.40;3.00;;;;;;;16.45;64.21;99887.80;105071;1271;69650;-64
2022/05/31 12:58:29;;;;;;;6.80;2.40;;;;;;;16.56;63.27;99885.27;104761;1271;74409;-64
2022/05/31 13:01:19;;;;;;;6.50;2.30;;;;;;;16.63;62.32;99887.38;104843;1271;59646;-64
2022/05/31 13:04:33;;;;;;;5.70;1.80;;;;;;;16.69;62.42;99885.63;105006;1271;59756;-63
2022/05/31 13:07:20;;;;;;;6.20;2.30;;;;;;;16.60;62.67;99879.99;105102;1271;74680;-66
2022/05/31 13:20:47;;;;;;;5.30;1.70;;;;;;;16.42;63.74;99862.92;104473;1279;61498;-64
2022/05/31 13:23:41;;;;;;;8.70;2.80;;;;;;;16.65;64.15;99863.88;104191;1280;72993;-62
2022/05/31 13:26:33;;;;;;;7.70;2.40;;;;;;;16.92;64.45;99864.95;104251;1279;69459;-66
2022/05/31 13:29:20;;;;;;;6.10;2.10;;;;;;;17.11;63.98;99862.24;104195;1279;72313;-66
2022/05/31 13:32:11;;;;;;;7.40;2.30;;;;;;;17.23;62.41;99857.20;103982;1280;59825;-67
2022/05/31 13:34:57;;;;;;;6.30;1.90;;;;;;;17.45;61.68;99859.60;104276;1279;60364;-64
2022/05/31 13:37:50;;;;;;;5.70;1.60;;;;;;;17.76;58.04;99856.54;104200;1279;73631;-64
2022/05/31 13:40:57;;;;;;;5.10;1.40;;;;;;;17.99;56.98;99854.54;104156;1280;67421;-64
2022/05/31 13:43:55;;;;;;;5.90;1.70;;;;;;;18.14;55.41;99855.59;104286;1279;73523;-63
2022/05/31 13:46:48;;;;;;;5.60;1.50;;;;;;;18.13;55.43;99855.49;104200;1277;59700;-65
2022/05/31 13:49:42;;;;;;;5.20;1.40;;;;;;;18.09;54.63;99853.75;104905;1271;60529;-64
2022/05/31 13:52:31;;;;;;;5.10;1.20;;;;;;;18.03;53.72;99850.27;104927;1271;73694;-64
2022/05/31 13:55:27;;;;;;;7.40;1.50;;;;;;;17.80;53.29;99851.58;104906;1271;69660;-65
2022/05/31 13:58:16;;;;;;;5.80;1.60;;;;;;;17.55;54.29;99856.47;104905;1273;74583;-63
2022/05/31 14:01:16;;;;;;;6.10;1.50;;;;;;;17.32;55.00;99857.26;104749;1271;59539;-64
2022/05/31 14:04:22;;;;;;;6.80;1.50;;;;;;;17.08;55.48;99859.29;104876;1271;60648;-67
2022/05/31 14:07:17;;;;;;;6.90;1.80;;;;;;;16.80;56.30;99864.73;105161;1271;75341;-63
2022/05/31 14:10:05;;;;;;;25.90;17.50;;;;;;;16.60;56.77;99864.91;104403;1271;1003406;-64
2022/05/31 14:13:02;;;;;;;10.60;5.30;;;;;;;16.34;57.41;99864.23;104785;1271;73275;-65
2022/05/31 14:15:48;;;;;;;7.40;2.50;;;;;;;16.11;58.59;99868.10;105171;1271;59685;-68